Time;durP1;ratioP1;P1;durP2;ratioP2;P2;SDS_P1;SDS_P2;PMS_P1;PMS_P2;Temp;Humidity;BMP_temperature;BMP_pressure;BME280_temperature;BME280_humidity;BME280_pressure;Samples;Min_cycle;Max_cycle;Signal;HPM_P1;HPM_P2
2021/07/11 00:00:40;;;;;;;0.50;0.40;;;;;;;24.22;44.58;99710.00;4405328;32;32665;-89
2021/07/11 00:03:08;;;;;;;0.57;0.40;;;;;;;24.16;45.30;99710.59;4397805;32;34128;-87
2021/07/11 00:05:36;;;;;;;3.58;0.70;;;;;;;24.09;45.54;99709.56;4402813;32;33357;-86
2021/07/11 00:08:06;;;;;;;0.80;0.60;;;;;;;24.18;45.34;99703.22;4403320;32;34006;-87
2021/07/11 00:10:34;;;;;;;1.17;0.65;;;;;;;24.18;45.13;99702.38;4411974;32;33977;-87
2021/07/11 00:13:01;;;;;;;1.15;0.60;;;;;;;24.18;44.98;99700.53;4397240;32;33024;-87
2021/07/11 00:15:29;;;;;;;1.37;0.80;;;;;;;24.10;44.97;99700.44;4407613;32;33176;-87
2021/07/11 00:17:57;;;;;;;3.22;0.80;;;;;;;23.95;45.29;99696.63;4393934;32;34093;-87
2021/07/11 00:20:25;;;;;;;2.17;0.70;;;;;;;23.97;45.26;99695.44;4404822;32;33608;-86
2021/07/11 00:22:52;;;;;;;1.12;0.50;;;;;;;23.82;45.60;99697.00;4412345;32;32673;-86
2021/07/11 00:25:21;;;;;;;1.80;0.70;;;;;;;24.00;45.43;99694.28;4403582;32;34211;-87
2021/07/11 00:27:49;;;;;;;1.52;0.57;;;;;;;23.82;46.44;99682.66;4401249;32;34962;-87
2021/07/11 00:30:18;;;;;;;1.65;0.77;;;;;;;23.81;46.83;99686.38;4403151;32;33994;-86
2021/07/11 00:32:46;;;;;;;1.12;0.73;;;;;;;23.70;47.39;99672.13;4404648;32;32494;-87
2021/07/11 00:35:14;;;;;;;1.55;0.98;;;;;;;23.85;46.87;99674.28;4397087;32;34373;-87
2021/07/11 00:37:42;;;;;;;3.00;1.40;;;;;;;23.84;46.84;99672.59;4415588;32;34089;-87
2021/07/11 00:40:14;;;;;;;1.75;0.70;;;;;;;23.80;47.16;99666.66;4388620;32;32998;-87
2021/07/11 00:42:43;;;;;;;2.12;0.70;;;;;;;23.70;47.26;99665.91;4403353;32;33358;-87
2021/07/11 00:45:14;;;;;;;1.95;0.62;;;;;;;23.88;46.63;99666.75;4410899;32;33440;-87
2021/07/11 00:47:43;;;;;;;1.55;0.70;;;;;;;23.84;46.84;99668.06;4404212;32;33535;-89
2021/07/11 00:50:17;;;;;;;0.88;0.57;;;;;;;23.79;47.75;99666.81;4391435;32;35723;-88
2021/07/11 00:52:45;;;;;;;2.35;0.73;;;;;;;23.77;47.87;99667.81;4403119;32;32790;-88
2021/07/11 00:55:14;;;;;;;1.12;0.70;;;;;;;23.71;48.09;99662.19;4405872;32;34755;-89
2021/07/11 00:57:42;;;;;;;0.95;0.70;;;;;;;23.71;47.99;99657.66;4403414;32;33829;-88
2021/07/11 01:00:12;;;;;;;3.08;0.70;;;;;;;23.69;48.25;99659.66;4406231;32;33704;-88
2021/07/11 01:02:54;;;;;;;1.98;0.75;;;;;;;23.54;48.87;99658.44;4406776;32;33524;-88
2021/07/11 01:05:24;;;;;;;4.05;0.70;;;;;;;23.48;48.95;99657.22;4403705;32;32685;-88
2021/07/11 01:08:20;;;;;;;2.42;0.73;;;;;;;23.77;48.11;99657.03;4410478;32;33804;-88
2021/07/11 01:10:52;;;;;;;2.33;0.88;;;;;;;23.51;48.83;99651.53;4393352;32;33774;-88
2021/07/11 01:13:22;;;;;;;2.67;0.57;;;;;;;23.51;49.13;99651.53;4386521;32;32376;-87
2021/07/11 01:15:53;;;;;;;3.55;0.80;;;;;;;23.63;48.84;99656.69;4403560;32;34027;-87
2021/07/11 01:18:23;;;;;;;1.25;0.70;;;;;;;23.74;48.61;99648.41;4406617;32;33389;-87
2021/07/11 01:20:55;;;;;;;1.08;0.95;;;;;;;23.51;49.21;99653.38;4403846;32;34770;-87
2021/07/11 01:23:44;;;;;;;0.98;0.70;;;;;;;23.45;49.67;99648.59;4388379;32;33947;-87
2021/07/11 01:26:13;;;;;;;3.72;1.00;;;;;;;23.38;49.97;99644.81;4416306;32;34689;-88
2021/07/11 01:28:43;;;;;;;1.75;0.90;;;;;;;23.49;49.50;99644.59;4406962;32;34528;-88
2021/07/11 01:31:15;;;;;;;3.05;0.62;;;;;;;23.27;50.31;99647.75;4403651;32;33877;-89
2021/07/11 01:33:45;;;;;;;3.42;0.77;;;;;;;23.16;50.78;99649.63;4398218;32;33390;-89
2021/07/11 01:36:13;;;;;;;3.45;0.60;;;;;;;23.39;49.51;99649.22;4400596;32;34710;-89
2021/07/11 01:38:42;;;;;;;2.25;0.57;;;;;;;23.48;49.26;99645.59;4403919;32;33158;-89
2021/07/11 01:41:11;;;;;;;2.30;0.82;;;;;;;23.27;49.97;99642.37;4402992;32;34111;-89
2021/07/11 01:43:41;;;;;;;2.22;1.17;;;;;;;23.35;50.10;99642.44;4405394;32;33209;-90
2021/07/11 01:46:09;;;;;;;0.77;0.70;;;;;;;23.29;50.16;99646.59;4387558;32;33263;-89
2021/07/11 01:48:38;;;;;;;6.97;0.90;;;;;;;23.48;49.53;99646.44;4406193;32;34148;-88
2021/07/11 01:51:05;;;;;;;2.25;0.93;;;;;;;23.27;50.31;99643.22;4404379;32;34545;-89
2021/07/11 01:53:38;;;;;;;1.35;0.73;;;;;;;23.40;49.92;99640.13;4404287;32;32619;-89
2021/07/11 01:56:08;;;;;;;3.80;1.48;;;;;;;23.25;50.47;99645.19;4403928;32;33197;-89
2021/07/11 01:58:36;;;;;;;3.83;0.70;;;;;;;23.28;50.34;99639.50;4417126;32;33924;-89
2021/07/11 02:01:07;;;;;;;1.60;0.90;;;;;;;23.37;49.84;99637.75;4407533;32;32844;-89
2021/07/11 02:03:38;;;;;;;1.65;1.05;;;;;;;23.41;49.80;99644.53;4404109;32;32965;-89
2021/07/11 02:06:07;;;;;;;1.17;0.60;;;;;;;23.43;50.37;99643.37;4385748;32;33960;-89
2021/07/11 02:08:36;;;;;;;1.87;0.95;;;;;;;23.45;50.31;99645.91;4389883;32;35037;-89
2021/07/11 02:11:05;;;;;;;1.98;0.85;;;;;;;23.37;50.27;99643.13;4405334;32;32385;-88
2021/07/11 02:13:58;;;;;;;1.85;0.70;;;;;;;23.50;50.09;99640.91;4404658;32;33463;-89
2021/07/11 02:16:36;;;;;;;1.10;0.85;;;;;;;23.43;49.51;99643.37;4391213;32;32708;-90
2021/07/11 02:19:06;;;;;;;2.05;0.62;;;;;;;23.68;49.38;99641.78;4404289;32;33881;-88
2021/07/11 02:21:38;;;;;;;0.70;0.60;;;;;;;23.39;50.93;99643.81;4398103;32;32857;-86
2021/07/11 02:24:06;;;;;;;0.75;0.50;;;;;;;23.24;51.46;99638.13;4394775;32;32804;-87
2021/07/11 02:26:37;;;;;;;3.15;0.70;;;;;;;23.39;51.10;99638.44;4400727;32;33392;-86
2021/07/11 02:29:06;;;;;;;0.85;0.60;;;;;;;23.24;51.43;99636.25;4403253;32;33194;-86
2021/07/11 02:31:41;;;;;;;1.27;1.15;;;;;;;23.01;51.84;99645.75;4405813;32;34481;-87
2021/07/11 02:34:10;;;;;;;1.30;0.73;;;;;;;23.25;51.09;99642.50;4403031;32;33512;-87
2021/07/11 02:36:49;;;;;;;1.62;0.80;;;;;;;23.38;50.82;99647.53;4392301;32;32557;-87
2021/07/11 02:39:20;;;;;;;1.98;0.90;;;;;;;23.34;51.17;99648.81;4404502;32;32988;-86
2021/07/11 02:41:59;;;;;;;1.92;0.90;;;;;;;23.36;51.31;99654.88;4403616;32;33196;-88
2021/07/11 02:44:28;;;;;;;1.10;0.70;;;;;;;23.67;50.02;99656.25;4404036;32;32618;-88
2021/07/11 02:46:58;;;;;;;1.65;0.90;;;;;;;23.68;50.47;99660.63;4401119;32;33635;-88
2021/07/11 02:49:28;;;;;;;0.98;0.68;;;;;;;23.61;50.89;99656.84;4415523;32;33938;-87
2021/07/11 02:52:00;;;;;;;1.75;1.15;;;;;;;23.62;50.95;99658.53;4404677;32;32864;-88
2021/07/11 02:54:33;;;;;;;1.40;0.82;;;;;;;23.77;50.69;99670.50;4404857;32;31799;-87
2021/07/11 02:57:03;;;;;;;6.25;0.50;;;;;;;23.89;49.88;99665.72;4398096;32;33344;-88
2021/07/11 02:59:32;;;;;;;1.45;0.90;;;;;;;23.64;51.05;99661.97;4403705;32;36009;-88
2021/07/11 03:02:02;;;;;;;2.47;0.80;;;;;;;23.39;51.71;99668.06;4405312;32;32976;-88
2021/07/11 03:04:34;;;;;;;1.35;1.25;;;;;;;23.75;50.55;99661.72;4405838;32;33218;-87
2021/07/11 03:07:02;;;;;;;3.05;1.77;;;;;;;23.64;51.46;99666.50;4404682;32;35474;-87
2021/07/11 03:09:31;;;;;;;3.83;1.65;;;;;;;23.72;51.97;99675.50;4390582;32;32935;-87
2021/07/11 03:12:00;;;;;;;4.45;2.33;;;;;;;23.83;52.32;99676.28;4403127;32;32950;-87
2021/07/11 03:14:29;;;;;;;3.67;2.80;;;;;;;23.72;53.84;99671.97;4403894;32;32672;-88
2021/07/11 03:16:59;;;;;;;3.40;2.85;;;;;;;23.91;53.43;99670.97;4403585;32;33873;-88
2021/07/11 03:19:29;;;;;;;3.65;3.05;;;;;;;23.80;54.57;99671.22;4405874;32;35267;-88
2021/07/11 03:21:58;;;;;;;5.40;3.28;;;;;;;24.16;53.35;99678.22;4404093;32;34195;-86
2021/07/11 03:24:29;;;;;;;3.80;2.97;;;;;;;24.35;53.32;99662.84;4412919;32;34424;-86
2021/07/11 03:26:58;;;;;;;5.05;3.55;;;;;;;24.40;53.79;99676.75;4400923;32;33930;-85
2021/07/11 03:29:30;;;;;;;4.43;3.35;;;;;;;24.63;53.38;99669.81;4402939;32;34055;-86
2021/07/11 03:31:58;;;;;;;6.82;3.30;;;;;;;24.60;53.79;99663.91;4399180;32;32870;-89
2021/07/11 03:34:28;;;;;;;4.45;3.72;;;;;;;24.91;53.48;99666.91;4403970;32;32840;-90
2021/07/11 03:37:10;;;;;;;5.80;3.90;;;;;;;24.78;54.30;99664.66;4399004;32;33531;-86
2021/07/11 03:39:42;;;;;;;8.30;3.72;;;;;;;24.82;54.70;99674.13;4405386;32;34401;-86
2021/07/11 03:42:10;;;;;;;4.32;3.92;;;;;;;24.74;55.27;99676.81;4403428;32;32973;-86
2021/07/11 03:44:42;;;;;;;7.30;3.95;;;;;;;24.36;57.21;99668.16;4404154;32;33406;-86
2021/07/11 03:47:11;;;;;;;6.03;4.30;;;;;;;24.24;57.48;99678.31;4403179;32;32808;-86
2021/07/11 03:49:40;;;;;;;4.93;4.30;;;;;;;24.71;56.31;99669.84;4399399;32;34586;-87
2021/07/11 03:52:10;;;;;;;5.62;4.20;;;;;;;24.69;56.43;99669.19;4395271;32;34639;-87
2021/07/11 03:54:38;;;;;;;7.70;4.82;;;;;;;24.40;57.73;99668.66;4396867;32;32429;-89
2021/07/11 03:57:07;;;;;;;5.03;4.53;;;;;;;24.66;56.75;99657.84;4405226;32;33104;-88
2021/07/11 03:59:35;;;;;;;5.05;4.28;;;;;;;24.86;56.28;99653.03;4404626;32;34112;-89
2021/07/11 04:02:06;;;;;;;4.82;4.32;;;;;;;25.26;55.37;99658.63;4403802;32;32699;-87
2021/07/11 04:04:37;;;;;;;6.05;5.45;;;;;;;25.01;56.21;99656.81;4402448;32;33471;-87
2021/07/11 04:07:05;;;;;;;5.15;4.60;;;;;;;24.80;57.09;99654.53;4405687;32;33719;-87
2021/07/11 04:09:34;;;;;;;6.32;5.47;;;;;;;24.71;57.71;99648.25;4393762;32;34137;-87
2021/07/11 04:12:02;;;;;;;6.32;5.00;;;;;;;24.76;57.78;99659.41;4392760;32;33977;-87
2021/07/11 04:14:29;;;;;;;6.28;5.35;;;;;;;25.01;57.26;99659.50;4403720;32;33918;-87
2021/07/11 04:17:04;;;;;;;6.50;4.78;;;;;;;25.27;56.47;99657.63;4404240;32;34155;-86
2021/07/11 04:19:35;;;;;;;5.60;5.10;;;;;;;25.09;57.17;99665.00;4411895;32;34432;-87
2021/07/11 04:22:05;;;;;;;6.32;5.72;;;;;;;25.33;56.57;99657.97;4391759;32;34320;-87
2021/07/11 04:24:35;;;;;;;7.65;4.75;;;;;;;25.18;57.62;99663.16;4391663;32;32820;-87
2021/07/11 04:27:03;;;;;;;5.70;4.93;;;;;;;25.19;57.36;99665.69;4404285;32;33160;-87
2021/07/11 04:29:33;;;;;;;7.35;4.75;;;;;;;25.26;57.08;99664.03;4395000;32;34079;-86
2021/07/11 04:32:02;;;;;;;7.22;5.97;;;;;;;25.14;57.62;99667.19;4405069;32;33978;-87
2021/07/11 04:34:35;;;;;;;6.87;5.43;;;;;;;25.03;58.31;99660.22;4402163;32;33760;-88
2021/07/11 04:37:11;;;;;;;5.87;5.10;;;;;;;25.57;56.60;99667.97;4403946;32;32947;-88
2021/07/11 04:39:39;;;;;;;5.65;5.03;;;;;;;25.52;56.90;99660.38;4404242;32;34861;-88
2021/07/11 04:42:08;;;;;;;7.05;6.30;;;;;;;25.63;56.77;99668.16;4395833;32;33193;-89
2021/07/11 04:44:35;;;;;;;8.40;6.35;;;;;;;25.71;56.44;99665.47;4405310;32;32909;-85
2021/07/11 04:47:08;;;;;;;6.85;5.75;;;;;;;25.25;57.87;99665.03;4404341;32;33989;-87
2021/07/11 04:49:35;;;;;;;11.43;6.57;;;;;;;25.29;57.91;99669.09;4406628;32;32620;-87
2021/07/11 04:52:04;;;;;;;7.32;5.75;;;;;;;25.60;57.30;99671.22;4405465;32;32931;-88
2021/07/11 04:54:33;;;;;;;7.43;5.87;;;;;;;25.82;56.75;99679.69;4399645;32;33408;-87
2021/07/11 04:57:01;;;;;;;10.40;6.18;;;;;;;25.72;56.85;99672.56;4405654;32;33205;-87
2021/07/11 04:59:31;;;;;;;7.22;6.47;;;;;;;25.90;56.31;99683.25;4407304;32;34041;-87
2021/07/11 05:01:59;;;;;;;6.80;6.12;;;;;;;25.54;57.40;99679.97;4404498;32;33419;-87
2021/07/11 05:04:27;;;;;;;7.32;6.22;;;;;;;25.73;57.37;99687.78;4406029;32;33051;-87
2021/07/11 05:06:54;;;;;;;8.68;7.93;;;;;;;25.71;56.98;99681.69;4399639;32;33446;-87
2021/07/11 05:09:23;;;;;;;11.25;7.87;;;;;;;25.42;57.77;99684.84;4400767;32;33767;-86
2021/07/11 05:11:50;;;;;;;11.10;7.55;;;;;;;25.15;58.82;99687.81;4404873;32;34686;-87
2021/07/11 05:14:18;;;;;;;9.98;7.53;;;;;;;25.19;59.13;99681.91;4398732;32;32528;-87
2021/07/11 05:16:46;;;;;;;9.18;7.22;;;;;;;25.58;57.64;99681.31;4398455;32;33711;-87
2021/07/11 05:19:13;;;;;;;11.55;7.28;;;;;;;25.85;57.31;99677.50;4404174;32;34548;-87
2021/07/11 05:21:41;;;;;;;8.07;7.28;;;;;;;25.93;57.08;99691.06;4402462;32;33677;-87
2021/07/11 05:24:09;;;;;;;9.25;8.32;;;;;;;25.63;57.80;99687.06;4402076;32;33082;-87
2021/07/11 05:26:36;;;;;;;11.60;7.55;;;;;;;26.04;56.79;99697.97;4404952;32;33161;-88
2021/07/11 05:29:04;;;;;;;9.27;6.62;;;;;;;25.81;57.41;99702.34;4398835;32;34003;-87
2021/07/11 05:31:32;;;;;;;10.57;7.25;;;;;;;25.87;57.53;99702.53;4403328;32;34226;-87
2021/07/11 05:34:00;;;;;;;8.50;7.20;;;;;;;25.91;56.67;99700.34;4403622;32;33114;-88
2021/07/11 05:36:28;;;;;;;8.60;7.43;;;;;;;25.96;56.92;99711.50;4404125;32;33946;-87
2021/07/11 05:38:56;;;;;;;8.52;7.40;;;;;;;26.00;56.41;99702.03;4375072;32;34765;-87
2021/07/11 05:41:23;;;;;;;10.63;7.40;;;;;;;26.53;55.68;99695.25;4405159;32;32799;-87
2021/07/11 05:43:51;;;;;;;7.82;6.97;;;;;;;26.60;54.81;99706.25;4402421;32;33589;-86
2021/07/11 05:46:19;;;;;;;8.45;6.75;;;;;;;26.64;54.43;99702.19;4402797;32;34418;-86
2021/07/11 05:48:47;;;;;;;9.45;6.20;;;;;;;26.59;54.71;99696.41;4386550;32;33317;-87
2021/07/11 05:51:15;;;;;;;9.40;7.35;;;;;;;26.80;54.13;99697.56;4403359;32;33210;-87
2021/07/11 05:53:43;;;;;;;6.78;6.07;;;;;;;26.64;54.21;99699.47;4401473;32;32932;-85
2021/07/11 05:56:11;;;;;;;8.57;6.72;;;;;;;26.40;55.19;99703.03;4392325;32;32966;-85
2021/07/11 05:58:38;;;;;;;8.35;6.50;;;;;;;26.35;54.75;99708.09;4397871;32;34800;-86
2021/07/11 06:01:07;;;;;;;9.68;6.80;;;;;;;26.28;54.98;99711.50;4403275;32;32861;-86
2021/07/11 06:03:35;;;;;;;9.77;7.20;;;;;;;26.48;55.17;99717.44;4399832;32;33259;-85
2021/07/11 06:06:03;;;;;;;10.32;6.15;;;;;;;26.39;54.36;99723.00;4400195;32;33739;-85
2021/07/11 06:08:30;;;;;;;7.55;6.03;;;;;;;26.23;55.49;99721.16;4394693;32;33889;-88
2021/07/11 06:10:59;;;;;;;7.55;6.50;;;;;;;25.98;55.74;99718.44;4402861;32;34455;-87
2021/07/11 06:13:26;;;;;;;6.75;6.05;;;;;;;26.64;54.55;99716.56;4401162;32;33515;-86
2021/07/11 06:15:54;;;;;;;8.20;6.62;;;;;;;26.65;53.88;99715.56;4410607;32;32970;-86
2021/07/11 06:18:22;;;;;;;7.85;6.18;;;;;;;26.78;54.01;99710.44;4387438;32;33067;-86
2021/07/11 06:20:49;;;;;;;7.80;5.75;;;;;;;26.72;53.12;99707.56;4398949;32;33292;-87
2021/07/11 06:23:17;;;;;;;7.35;5.95;;;;;;;27.09;52.60;99708.84;4395631;32;32796;-86
2021/07/11 06:25:45;;;;;;;6.12;5.53;;;;;;;27.19;52.14;99709.47;4403828;32;33964;-86
2021/07/11 06:28:13;;;;;;;7.72;5.70;;;;;;;27.28;51.98;99714.69;4386477;32;32849;-86
2021/07/11 06:30:40;;;;;;;9.88;6.15;;;;;;;27.61;50.94;99705.53;4396786;32;33191;-86
2021/07/11 06:33:08;;;;;;;6.95;6.25;;;;;;;27.93;50.49;99710.75;4406667;32;32761;-86
2021/07/11 06:35:36;;;;;;;9.13;5.47;;;;;;;27.74;50.05;99708.53;4396517;32;33888;-86
2021/07/11 06:38:03;;;;;;;8.77;5.60;;;;;;;27.64;50.76;99708.72;4397718;32;33902;-86
2021/07/11 06:40:32;;;;;;;6.35;5.70;;;;;;;28.16;49.89;99708.03;4384879;32;34393;-86
2021/07/11 06:42:59;;;;;;;6.95;5.72;;;;;;;28.21;49.27;99711.03;4389279;32;32745;-86
2021/07/11 06:45:27;;;;;;;9.90;5.93;;;;;;;27.95;50.17;99710.56;4397887;32;33369;-86
2021/07/11 06:47:55;;;;;;;6.05;5.28;;;;;;;28.12;49.41;99711.31;4402835;32;33628;-86
2021/07/11 06:50:23;;;;;;;6.35;5.60;;;;;;;28.22;49.25;99717.31;4401689;32;32907;-86
2021/07/11 06:52:51;;;;;;;7.70;6.93;;;;;;;28.22;49.91;99717.31;4383475;32;32719;-86
2021/07/11 06:55:19;;;;;;;7.72;5.93;;;;;;;28.05;49.58;99713.88;4392619;32;32888;-86
2021/07/11 06:57:46;;;;;;;6.87;5.60;;;;;;;28.16;49.49;99702.63;4386767;32;34503;-86
2021/07/11 07:00:15;;;;;;;9.07;6.37;;;;;;;28.43;49.35;99708.50;4388289;32;33389;-85
2021/07/11 07:02:43;;;;;;;7.93;5.10;;;;;;;28.62;49.30;99702.53;4396628;32;32548;-85
2021/07/11 07:05:11;;;;;;;11.70;5.18;;;;;;;28.49;49.01;99708.62;4403423;32;33878;-85
2021/07/11 07:07:39;;;;;;;9.68;6.32;;;;;;;28.48;49.47;99697.91;4387869;32;33975;-86
2021/07/11 07:10:10;;;;;;;7.47;5.43;;;;;;;28.68;48.46;99698.25;4386033;32;34301;-86
2021/07/11 07:12:37;;;;;;;6.03;5.10;;;;;;;28.65;48.07;99696.72;4385494;32;32232;-86
2021/07/11 07:15:06;;;;;;;6.68;5.32;;;;;;;28.22;48.82;99695.59;4404414;32;32980;-85
2021/07/11 07:17:34;;;;;;;7.20;5.22;;;;;;;28.58;48.56;99707.50;4396666;32;34293;-86
2021/07/11 07:20:05;;;;;;;6.32;5.10;;;;;;;28.76;48.43;99709.00;4393832;32;33298;-86
2021/07/11 07:22:34;;;;;;;8.85;5.18;;;;;;;28.67;47.51;99712.84;4398846;32;33133;-85
2021/07/11 07:25:14;;;;;;;5.70;4.62;;;;;;;28.68;47.99;99712.66;4398152;32;33124;-85
2021/07/11 07:27:43;;;;;;;10.80;4.80;;;;;;;28.87;48.05;99713.16;4392704;32;33202;-85
2021/07/11 07:30:16;;;;;;;6.40;4.90;;;;;;;28.92;46.68;99716.16;4391905;32;34003;-85
2021/07/11 07:32:45;;;;;;;5.90;4.45;;;;;;;28.48;47.42;99711.50;4405159;32;33641;-85
2021/07/11 07:35:13;;;;;;;8.35;4.90;;;;;;;28.91;47.27;99711.72;4398761;32;35003;-84
2021/07/11 07:37:43;;;;;;;4.93;4.50;;;;;;;29.08;46.83;99707.81;4391494;32;34108;-84
2021/07/11 07:40:11;;;;;;;7.07;5.10;;;;;;;29.60;44.57;99712.25;4396626;32;33110;-84
2021/07/11 07:42:40;;;;;;;6.62;4.90;;;;;;;29.74;44.60;99714.09;4405527;32;33171;-85
2021/07/11 07:45:08;;;;;;;5.57;4.90;;;;;;;29.90;44.35;99714.88;4408444;32;33928;-84
2021/07/11 07:47:36;;;;;;;5.57;5.07;;;;;;;29.69;45.22;99716.53;4398264;32;33597;-85
2021/07/11 07:50:05;;;;;;;5.55;5.05;;;;;;;30.23;44.23;99721.50;4395684;32;34882;-84
2021/07/11 07:52:33;;;;;;;8.10;5.32;;;;;;;29.29;46.91;99726.94;4400144;32;32792;-84
2021/07/11 07:55:06;;;;;;;10.48;4.87;;;;;;;29.74;44.11;99722.25;4396711;32;33675;-84
2021/07/11 07:57:33;;;;;;;5.95;5.28;;;;;;;30.30;43.17;99725.13;4399987;32;35688;-84
2021/07/11 08:00:02;;;;;;;9.60;5.65;;;;;;;30.05;43.36;99716.50;4405213;32;33699;-84
2021/07/11 08:02:39;;;;;;;6.30;4.47;;;;;;;30.11;44.37;99717.59;4400611;32;33171;-85
2021/07/11 08:05:08;;;;;;;5.60;4.15;;;;;;;30.33;43.26;99711.09;4400218;32;33482;-83
2021/07/11 08:07:36;;;;;;;5.97;4.72;;;;;;;30.49;42.01;99709.16;4400732;32;33987;-84
2021/07/11 08:10:06;;;;;;;5.53;4.25;;;;;;;30.89;40.62;99702.09;4399681;32;34034;-84
2021/07/11 08:12:34;;;;;;;5.65;4.43;;;;;;;30.42;41.10;99706.34;4395183;32;33500;-84
2021/07/11 08:15:03;;;;;;;4.82;4.43;;;;;;;30.96;40.22;99707.59;4396002;32;32721;-84
2021/07/11 08:17:32;;;;;;;7.43;5.07;;;;;;;30.44;42.11;99704.28;4399275;32;33681;-85
2021/07/11 08:20:00;;;;;;;9.65;5.32;;;;;;;30.90;41.14;99709.22;4400985;32;33794;-84
2021/07/11 08:22:29;;;;;;;8.73;4.57;;;;;;;30.88;43.16;99711.31;4398657;32;34109;-85
2021/07/11 08:24:57;;;;;;;5.87;4.72;;;;;;;30.47;41.91;99701.16;4384089;32;32934;-85
2021/07/11 08:27:26;;;;;;;8.15;5.35;;;;;;;31.09;40.97;99702.19;4402312;32;34108;-85
2021/07/11 08:29:54;;;;;;;6.97;5.20;;;;;;;31.29;41.71;99703.19;4412762;32;34573;-84
2021/07/11 08:32:23;;;;;;;6.97;5.22;;;;;;;31.50;40.43;99696.72;4404314;32;34351;-85
2021/07/11 08:34:51;;;;;;;6.75;4.37;;;;;;;31.75;39.51;99702.44;4397199;32;34213;-84
2021/07/11 08:37:18;;;;;;;5.35;4.60;;;;;;;31.39;40.57;99697.34;4400021;32;32770;-84
2021/07/11 08:39:46;;;;;;;6.57;4.85;;;;;;;31.74;40.44;99689.84;4396310;32;33571;-85
2021/07/11 08:42:14;;;;;;;5.10;4.60;;;;;;;31.66;40.75;99695.50;4405448;32;33547;-84
2021/07/11 08:44:41;;;;;;;4.80;4.40;;;;;;;31.24;39.19;99700.19;4401746;32;34228;-85
2021/07/11 08:47:10;;;;;;;7.28;4.75;;;;;;;31.13;39.78;99698.03;4409053;32;34851;-85
2021/07/11 08:49:38;;;;;;;5.78;4.82;;;;;;;31.42;39.11;99693.34;4396665;32;33224;-85
2021/07/11 08:52:07;;;;;;;6.57;4.95;;;;;;;31.43;38.78;99693.16;4400116;32;32160;-86
2021/07/11 08:54:37;;;;;;;9.18;4.82;;;;;;;31.35;39.99;99694.16;4402935;32;34212;-86
2021/07/11 08:57:09;;;;;;;7.47;4.82;;;;;;;32.02;38.70;99686.16;4404505;32;33110;-85
2021/07/11 08:59:38;;;;;;;5.80;4.22;;;;;;;32.10;37.77;99688.69;4390235;32;33944;-88
2021/07/11 09:02:08;;;;;;;6.10;4.55;;;;;;;31.51;37.86;99683.91;4394791;32;32695;-84
2021/07/11 09:04:44;;;;;;;5.18;4.53;;;;;;;32.16;38.18;99676.91;4404139;32;33964;-85
2021/07/11 09:07:16;;;;;;;6.70;4.15;;;;;;;32.08;37.96;99672.50;4417784;32;33420;-84
2021/07/11 09:09:44;;;;;;;6.20;5.57;;;;;;;32.50;36.62;99672.28;4405654;32;34683;-85
2021/07/11 09:12:13;;;;;;;10.43;4.65;;;;;;;31.91;39.14;99667.69;4404244;32;33257;-84
2021/07/11 09:14:59;;;;;;;6.82;5.87;;;;;;;32.15;38.21;99675.25;4403176;32;34924;-84
2021/07/11 09:17:31;;;;;;;8.52;4.95;;;;;;;32.57;37.16;99662.19;4412843;32;33942;-84
2021/07/11 09:19:59;;;;;;;9.07;4.32;;;;;;;32.34;37.00;99671.66;4391479;32;33600;-84
2021/07/11 09:22:28;;;;;;;5.80;4.47;;;;;;;32.34;37.61;99671.66;4397129;32;32007;-84
2021/07/11 09:24:58;;;;;;;4.97;4.47;;;;;;;32.22;38.90;99667.88;4388745;32;34103;-84
2021/07/11 09:27:26;;;;;;;5.87;4.62;;;;;;;32.21;39.26;99663.47;4396695;32;34082;-84
2021/07/11 09:30:06;;;;;;;4.70;4.25;;;;;;;32.53;36.08;99647.28;4404823;32;33641;-85
2021/07/11 09:32:40;;;;;;;13.55;4.20;;;;;;;31.99;38.18;99649.16;4396001;32;32208;-84
2021/07/11 09:35:12;;;;;;;5.78;4.25;;;;;;;32.10;36.72;99661.38;4405689;32;33237;-84
2021/07/11 09:37:42;;;;;;;8.97;5.43;;;;;;;32.77;37.29;99662.16;4399980;32;33738;-85
2021/07/11 09:40:11;;;;;;;8.05;4.60;;;;;;;32.68;35.82;99658.81;4388990;32;34105;-84
2021/07/11 09:42:41;;;;;;;4.65;4.25;;;;;;;32.64;36.16;99652.09;4405105;32;32074;-84
2021/07/11 09:45:34;;;;;;;5.47;4.97;;;;;;;32.60;36.59;99650.84;4396890;32;101833;-84
2021/07/11 09:48:08;;;;;;;4.65;4.25;;;;;;;32.24;37.51;99652.13;4401227;32;34322;-84
2021/07/11 09:50:35;;;;;;;6.95;4.43;;;;;;;32.03;36.95;99658.63;4395804;32;32945;-84
2021/07/11 09:53:06;;;;;;;4.65;4.25;;;;;;;32.12;40.64;99662.84;4403261;32;33370;-84
2021/07/11 09:55:36;;;;;;;4.62;4.22;;;;;;;32.20;39.10;99656.31;4400766;32;33722;-85
2021/07/11 09:58:06;;;;;;;7.03;4.68;;;;;;;32.98;34.46;99656.44;4404155;32;33438;-84
2021/07/11 10:00:36;;;;;;;4.75;4.22;;;;;;;32.97;34.92;99656.66;4404325;32;34810;-84
2021/07/11 10:03:06;;;;;;;5.70;4.47;;;;;;;32.88;34.66;99643.19;4403299;32;34205;-84
2021/07/11 10:05:35;;;;;;;4.97;4.45;;;;;;;32.46;35.70;99646.44;4408095;32;34999;-84
2021/07/11 10:08:03;;;;;;;5.30;4.25;;;;;;;32.32;36.01;99649.16;4402100;32;33833;-84
2021/07/11 10:10:33;;;;;;;6.37;3.97;;;;;;;31.90;37.29;99647.69;4401482;32;33617;-84
2021/07/11 10:13:02;;;;;;;4.50;4.10;;;;;;;31.56;37.13;99644.03;4398401;32;32965;-84
2021/07/11 10:15:32;;;;;;;7.32;3.75;;;;;;;31.24;38.37;99645.63;4400826;32;34307;-84
2021/07/11 10:18:06;;;;;;;13.45;4.55;;;;;;;31.53;37.65;99649.94;4404140;32;33725;-84
2021/07/11 10:20:39;;;;;;;4.68;4.15;;;;;;;31.92;36.04;99645.59;4398329;32;33444;-84
2021/07/11 10:23:08;;;;;;;4.93;4.20;;;;;;;31.77;38.93;99648.50;4400981;32;32938;-84
2021/07/11 10:25:37;;;;;;;4.45;3.58;;;;;;;32.47;36.96;99642.66;4400165;32;32557;-84
2021/07/11 10:28:14;;;;;;;6.35;4.32;;;;;;;32.86;36.28;99639.00;4390921;32;34043;-84
2021/07/11 10:30:44;;;;;;;4.72;4.15;;;;;;;32.57;36.17;99646.66;4386977;32;32793;-84
2021/07/11 10:33:20;;;;;;;4.55;4.15;;;;;;;33.03;36.06;99639.38;4404753;32;32457;-84
2021/07/11 10:35:59;;;;;;;3.95;3.60;;;;;;;33.49;33.47;99632.84;4402852;32;33378;-85
2021/07/11 10:38:27;;;;;;;5.93;4.43;;;;;;;33.29;35.19;99628.31;4397623;32;34840;-84
2021/07/11 10:40:55;;;;;;;6.75;4.12;;;;;;;33.20;33.95;99634.25;4408939;32;33729;-83
2021/07/11 10:43:22;;;;;;;8.90;4.85;;;;;;;32.75;35.31;99632.28;4417346;32;33231;-83
2021/07/11 10:45:50;;;;;;;7.20;3.58;;;;;;;33.18;34.68;99620.78;4389487;32;32903;-85
2021/07/11 10:48:27;;;;;;;4.18;3.87;;;;;;;33.79;33.66;99611.97;4387345;32;33130;-84
2021/07/11 10:50:55;;;;;;;4.47;4.05;;;;;;;33.31;34.22;99612.50;4395469;32;33089;-85
2021/07/11 10:53:23;;;;;;;5.97;4.45;;;;;;;33.42;34.94;99604.63;4400620;32;33971;-84
2021/07/11 10:55:50;;;;;;;6.80;3.95;;;;;;;33.47;33.68;99607.59;4403010;32;33035;-85
2021/07/11 10:58:19;;;;;;;5.18;4.03;;;;;;;33.36;33.93;99601.72;4408590;32;33832;-84
2021/07/11 11:00:47;;;;;;;4.80;4.00;;;;;;;33.64;33.92;99601.34;4402831;32;32778;-85
2021/07/11 11:03:20;;;;;;;7.57;4.15;;;;;;;33.14;35.69;99605.88;4408462;32;34492;-84
2021/07/11 11:05:50;;;;;;;5.97;4.50;;;;;;;33.62;32.79;99599.91;4412580;32;34431;-84
2021/07/11 11:08:23;;;;;;;7.03;4.12;;;;;;;33.92;35.57;99608.31;4400490;32;33472;-84
2021/07/11 11:10:53;;;;;;;4.65;3.92;;;;;;;33.53;37.28;99612.19;4416551;32;33814;-84
2021/07/11 11:13:27;;;;;;;7.00;5.07;;;;;;;33.10;38.83;99612.84;4400356;32;33504;-84
2021/07/11 11:15:57;;;;;;;5.03;4.53;;;;;;;32.84;39.76;99600.91;4411431;32;32553;-84
2021/07/11 11:18:29;;;;;;;7.35;4.32;;;;;;;32.76;39.55;99598.44;4399347;32;33094;-84
2021/07/11 11:21:06;;;;;;;4.97;4.50;;;;;;;32.61;40.57;99601.41;4400002;32;33873;-84
2021/07/11 11:23:47;;;;;;;6.97;4.47;;;;;;;32.86;40.08;99600.72;4380226;32;32374;-84
2021/07/11 11:26:21;;;;;;;6.57;4.32;;;;;;;32.75;40.70;99610.41;4410106;32;35008;-85
2021/07/11 11:28:51;;;;;;;7.20;4.95;;;;;;;32.40;40.61;99600.84;4398711;32;34155;-84
2021/07/11 11:31:29;;;;;;;5.80;4.70;;;;;;;32.23;42.35;99593.06;4401329;32;33444;-85
2021/07/11 11:33:56;;;;;;;7.70;5.03;;;;;;;31.92;41.86;99606.53;4409259;32;33126;-84
2021/07/11 11:36:39;;;;;;;5.78;4.72;;;;;;;31.69;42.78;99621.41;4402297;32;32505;-84
2021/07/11 11:39:16;;;;;;;5.87;5.32;;;;;;;31.22;43.98;99638.69;4401481;32;33844;-84
2021/07/11 11:41:45;;;;;;;5.53;4.72;;;;;;;30.65;45.03;99640.69;4399399;32;33179;-83
2021/07/11 11:44:15;;;;;;;6.78;4.68;;;;;;;30.16;46.50;99636.19;4389951;32;32444;-85
2021/07/11 11:46:45;;;;;;;7.28;5.37;;;;;;;30.04;47.66;99626.84;4388424;32;33052;-84